Time;durP1;ratioP1;P1;durP2;ratioP2;P2;SDS_P1;SDS_P2;PMS_P1;PMS_P2;Temp;Humidity;BMP_temperature;BMP_pressure;BME280_temperature;BME280_humidity;BME280_pressure;Samples;Min_cycle;Max_cycle;Signal;HPM_P1;HPM_P2
2022/10/19 00:01:20;;;;;;;12.93;8.32;;;15.50;99.90;;;18.43;60.10;98575.38;4870412;29;20052;-52
2022/10/19 00:03:52;;;;;;;13.73;8.95;;;15.50;99.90;;;18.43;59.94;98574.56;4870601;29;20058;-54
2022/10/19 00:06:27;;;;;;;15.27;8.32;;;15.50;99.90;;;18.41;59.77;98579.31;4870816;29;20064;-51
2022/10/19 00:09:07;;;;;;;14.45;9.02;;;15.40;99.90;;;18.37;59.64;98583.41;4870355;29;20243;-50
2022/10/19 00:11:39;;;;;;;10.73;7.72;;;15.30;99.90;;;18.34;60.01;98573.84;4870868;29;20063;-53
2022/10/19 00:14:12;;;;;;;17.60;9.98;;;15.30;99.90;;;18.28;60.26;98588.91;4870346;29;20053;-52
2022/10/19 00:16:42;;;;;;;20.38;12.05;;;15.30;99.90;;;18.27;60.59;98589.09;4870136;29;20061;-49
2022/10/19 00:19:22;;;;;;;20.10;11.80;;;15.30;99.90;;;18.22;60.97;98586.97;4869147;29;20045;-54
2022/10/19 00:21:50;;;;;;;20.13;11.77;;;15.30;99.90;;;18.24;61.13;98581.38;4870073;29;20049;-51
2022/10/19 00:24:18;;;;;;;21.55;12.10;;;15.30;99.90;;;18.27;61.16;98581.00;4869943;29;20239;-54
2022/10/19 00:26:46;;;;;;;27.10;13.68;;;15.30;99.90;;;18.31;61.11;98582.28;4868524;29;20080;-52
2022/10/19 00:29:14;;;;;;;21.00;12.48;;;15.40;99.90;;;18.34;61.03;98575.69;4870189;29;20045;-51
2022/10/19 00:31:42;;;;;;;21.38;11.57;;;15.40;99.90;;;18.39;60.92;98579.50;4869917;29;20059;-51
2022/10/19 00:34:10;;;;;;;25.00;14.10;;;15.40;99.90;;;18.41;60.81;98584.69;4869151;29;20057;-49
2022/10/19 00:36:40;;;;;;;20.17;11.75;;;15.50;99.90;;;18.38;60.97;98587.75;4869704;29;20049;-54
2022/10/19 00:39:13;;;;;;;26.63;12.43;;;15.40;99.90;;;18.36;61.01;98577.19;4869899;29;20045;-50
2022/10/19 00:41:45;;;;;;;21.30;13.25;;;15.40;99.90;;;18.41;60.88;98571.22;4869861;29;20107;-47
2022/10/19 00:44:14;;;;;;;28.63;13.52;;;15.40;99.90;;;18.44;60.85;98576.25;4869931;29;20361;-52
2022/10/19 00:46:49;;;;;;;43.35;16.50;;;15.40;99.90;;;18.41;60.80;98566.66;4869529;29;20037;-52
2022/10/19 00:49:23;;;;;;;31.30;15.18;;;15.40;99.90;;;18.40;60.90;98567.69;4867722;29;20053;-49
2022/10/19 00:52:00;;;;;;;34.60;14.75;;;15.40;99.90;;;18.39;60.84;98566.00;4869914;29;20053;-50
2022/10/19 00:54:31;;;;;;;35.03;13.68;;;15.40;99.90;;;18.39;60.61;98571.41;4868895;29;20057;-49
2022/10/19 00:56:59;;;;;;;28.40;14.00;;;15.40;99.90;;;18.36;60.81;98579.88;4869340;29;20057;-52
2022/10/19 00:59:30;;;;;;;34.30;15.30;;;15.40;99.90;;;18.35;60.74;98580.06;4868619;29;20045;-51
2022/10/19 01:02:02;;;;;;;33.88;15.20;;;15.30;99.90;;;18.32;60.61;98586.69;4868598;29;20053;-51
2022/10/19 01:04:37;;;;;;;29.77;14.98;;;15.30;99.90;;;18.33;60.81;98587.50;4868526;29;20046;-54
2022/10/19 01:07:07;;;;;;;29.23;14.80;;;15.30;99.90;;;18.35;60.71;98580.91;4868264;29;20394;-54
2022/10/19 01:09:34;;;;;;;26.45;13.50;;;15.40;99.90;;;18.38;60.70;98579.66;4868742;29;20063;-51
2022/10/19 01:12:42;;;;;;;23.92;13.48;;;15.40;99.90;;;18.42;60.74;98581.81;4869638;29;20050;-49
2022/10/19 01:15:45;;;;;;;33.88;14.48;;;15.50;99.90;;;18.48;60.63;98577.53;4869521;29;20060;-50
2022/10/19 01:18:49;;;;;;;28.60;12.65;;;15.50;99.90;;;18.49;60.67;98580.06;4868907;29;20053;-53
2022/10/19 01:21:33;;;;;;;45.47;13.55;;;15.50;99.90;;;18.54;60.78;98584.88;4869618;29;20060;-51
2022/10/19 01:24:29;;;;;;;21.25;13.55;;;15.50;99.90;;;18.54;60.83;98565.16;4868609;29;20045;-53
2022/10/19 01:27:21;;;;;;;32.22;13.05;;;15.50;99.90;;;18.58;60.71;98571.84;4869230;29;20243;-51
2022/10/19 01:29:59;;;;;;;32.55;14.88;;;15.60;99.90;;;18.59;60.94;98565.41;4868410;29;20055;-49
2022/10/19 01:32:37;;;;;;;36.83;14.48;;;15.60;99.90;;;18.59;61.12;98568.97;4869512;29;20045;-50
2022/10/19 01:35:21;;;;;;;36.75;15.40;;;15.60;99.90;;;18.63;60.94;98561.31;4868376;29;20351;-50
2022/10/19 01:38:17;;;;;;;45.85;14.65;;;15.70;99.90;;;18.62;60.97;98551.56;4867949;29;20056;-51
2022/10/19 01:40:58;;;;;;;24.63;13.35;;;15.70;99.90;;;18.66;61.28;98553.66;4868251;29;20055;-50
2022/10/19 01:43:43;;;;;;;23.23;14.50;;;15.70;99.90;;;18.71;61.35;98555.81;4868425;29;20056;-53
2022/10/19 01:46:48;;;;;;;29.60;14.30;;;15.70;99.90;;;18.70;61.04;98546.88;4872079;29;20051;-51
2022/10/19 01:49:52;;;;;;;31.02;13.50;;;15.70;99.90;;;18.71;60.93;98542.31;4862175;29;20075;-51
2022/10/19 01:52:22;;;;;;;29.80;14.27;;;15.70;99.90;;;18.70;61.23;98544.16;4871747;29;20050;-51
2022/10/19 01:54:56;;;;;;;38.50;15.13;;;15.70;99.90;;;18.68;61.30;98540.81;4872560;29;20053;-52
2022/10/19 01:57:33;;;;;;;38.78;13.43;;;15.70;99.90;;;18.70;61.24;98536.06;4871160;29;20254;-48
2022/10/19 02:00:06;;;;;;;29.25;12.90;;;15.80;99.90;;;18.72;61.34;98526.97;4872052;29;20343;-49
2022/10/19 02:02:46;;;;;;;34.45;13.13;;;15.80;99.90;;;18.74;61.36;98543.78;4872791;29;20051;-50
2022/10/19 02:05:16;;;;;;;37.33;13.80;;;15.80;99.90;;;18.70;61.51;98535.25;4871459;29;20365;-53
2022/10/19 02:07:49;;;;;;;24.95;13.45;;;15.70;99.90;;;18.71;61.46;98539.63;4871085;29;20057;-54
2022/10/19 02:10:19;;;;;;;34.30;12.82;;;15.70;99.90;;;18.72;61.56;98525.09;4871245;29;20053;-54
2022/10/19 02:12:48;;;;;;;24.95;12.05;;;15.70;99.90;;;18.72;61.59;98525.09;4872618;29;20059;-52
2022/10/19 02:15:21;;;;;;;22.58;12.38;;;15.70;99.90;;;18.72;61.75;98532.38;4871318;29;20255;-50
2022/10/19 02:17:56;;;;;;;24.30;12.23;;;15.70;99.90;;;18.75;61.65;98526.59;4871184;29;20060;-54
2022/10/19 02:20:25;;;;;;;21.65;12.70;;;15.80;99.90;;;18.73;61.66;98524.09;4871204;29;20045;-52
2022/10/19 02:22:54;;;;;;;22.88;12.98;;;15.80;99.90;;;18.78;61.66;98518.09;4871534;29;20060;-50
2022/10/19 02:25:23;;;;;;;23.17;12.55;;;15.80;99.90;;;18.77;61.70;98522.66;4872181;29;20221;-54
2022/10/19 02:27:52;;;;;;;18.67;12.80;;;15.80;99.90;;;18.78;61.50;98516.22;4870540;29;20239;-51
2022/10/19 02:30:21;;;;;;;16.83;12.57;;;15.80;99.90;;;18.80;61.36;98516.91;4871050;29;20339;-53
2022/10/19 02:32:49;;;;;;;17.92;11.60;;;15.80;99.90;;;18.81;61.50;98510.50;4870982;29;20053;-52
2022/10/19 02:35:17;;;;;;;21.42;12.82;;;15.80;99.90;;;18.81;61.51;98512.38;4870942;29;20049;-53
2022/10/19 02:37:45;;;;;;;17.08;12.00;;;15.80;99.90;;;18.82;61.48;98514.03;4871659;29;20054;-52
2022/10/19 02:40:13;;;;;;;16.45;13.07;;;15.90;99.90;;;18.84;61.36;98514.66;4870858;29;20041;-53
2022/10/19 02:42:49;;;;;;;15.68;11.15;;;15.90;99.90;;;18.86;61.55;98509.91;4870958;29;20365;-51
2022/10/19 02:45:19;;;;;;;18.35;11.15;;;15.90;99.90;;;18.91;61.46;98514.75;4871917;29;20046;-53
2022/10/19 02:47:57;;;;;;;18.73;11.60;;;15.90;99.90;;;18.86;61.33;98505.38;4871738;29;20053;-50
2022/10/19 02:50:26;;;;;;;16.20;12.00;;;15.80;99.90;;;18.80;61.14;98508.81;4870747;29;20267;-49
2022/10/19 02:52:54;;;;;;;18.38;11.57;;;15.70;99.90;;;18.72;61.11;98495.44;4871829;29;20057;-54
2022/10/19 02:55:21;;;;;;;19.42;11.70;;;15.70;99.90;;;18.70;61.22;98490.22;4885760;29;20057;-48
2022/10/19 02:57:49;;;;;;;18.08;11.35;;;15.60;99.90;;;18.68;61.15;98492.28;4871231;29;20049;-52
2022/10/19 03:00:17;;;;;;;19.17;12.65;;;15.60;99.90;;;18.63;61.07;98493.88;4871457;29;20049;-52
2022/10/19 03:02:47;;;;;;;16.42;10.55;;;15.60;99.90;;;18.60;61.02;98496.97;4871301;29;20051;-52
2022/10/19 03:05:14;;;;;;;16.15;10.38;;;15.50;99.90;;;18.58;60.94;98496.34;4871435;29;20059;-53
2022/10/19 03:07:42;;;;;;;14.32;10.55;;;15.50;99.90;;;18.54;61.03;98492.34;4871256;29;20059;-50
2022/10/19 03:10:10;;;;;;;17.98;11.45;;;15.40;99.90;;;18.56;60.98;98485.75;4871526;29;20049;-50
2022/10/19 03:12:38;;;;;;;18.10;11.40;;;15.40;99.90;;;18.57;60.86;98490.13;4871223;29;20065;-53
2022/10/19 03:15:07;;;;;;;15.35;10.15;;;15.50;99.90;;;18.55;61.00;98478.66;4871398;29;20347;-49
2022/10/19 03:17:35;;;;;;;14.70;10.35;;;15.50;99.90;;;18.55;61.01;98483.22;4871014;29;20063;-50
2022/10/19 03:20:04;;;;;;;16.90;10.98;;;15.50;99.90;;;18.51;61.15;98477.38;4871196;29;20259;-51
2022/10/19 03:22:31;;;;;;;19.92;12.20;;;15.50;99.90;;;18.50;61.10;98476.56;4871949;29;20060;-52
2022/10/19 03:24:59;;;;;;;18.42;11.88;;;15.40;99.90;;;18.52;61.08;98472.84;4871110;29;20056;-53
2022/10/19 03:27:27;;;;;;;20.92;13.18;;;15.50;99.90;;;18.58;60.92;98470.19;4870588;29;20305;-52
2022/10/19 03:29:55;;;;;;;21.88;12.98;;;15.60;99.90;;;18.60;61.01;98472.72;4871198;29;20063;-51
2022/10/19 03:32:23;;;;;;;21.02;13.00;;;15.60;99.90;;;18.60;60.98;98470.00;4871106;29;20049;-54
2022/10/19 03:34:50;;;;;;;21.92;13.77;;;15.60;99.90;;;18.59;61.08;98468.34;4871038;29;20049;-53
2022/10/19 03:37:18;;;;;;;21.52;13.40;;;15.50;99.90;;;18.60;61.11;98465.44;4870612;29;20054;-53
2022/10/19 03:39:46;;;;;;;25.05;13.02;;;15.60;99.90;;;18.61;61.06;98464.44;4870647;29;20057;-54
2022/10/19 03:42:14;;;;;;;24.33;13.63;;;15.60;99.90;;;18.58;61.03;98470.19;4900424;29;20053;-54
2022/10/19 03:44:42;;;;;;;22.83;13.45;;;15.50;99.90;;;18.55;61.13;98467.88;4870859;29;20049;-49
2022/10/19 03:47:10;;;;;;;25.80;14.00;;;15.50;99.90;;;18.56;61.28;98464.16;4869386;29;20053;-51
2022/10/19 03:49:37;;;;;;;25.00;14.18;;;15.50;99.90;;;18.59;61.26;98460.25;4868726;29;20062;-51
2022/10/19 03:52:08;;;;;;;29.25;15.60;;;15.60;99.90;;;18.57;61.20;98459.59;4870535;29;20055;-52
2022/10/19 03:54:36;;;;;;;29.75;16.23;;;15.60;99.90;;;18.56;61.29;98468.72;4870786;29;20046;-52
2022/10/19 03:57:04;;;;;;;27.73;14.02;;;15.60;99.90;;;18.59;61.10;98476.41;4870242;29;20246;-49
2022/10/19 03:59:32;;;;;;;25.90;15.10;;;15.60;99.90;;;18.61;61.23;98477.06;4869757;29;20224;-54
2022/10/19 04:02:00;;;;;;;24.45;13.90;;;15.60;99.90;;;18.64;61.14;98468.59;4870266;29;20049;-48
2022/10/19 04:04:28;;;;;;;26.65;14.93;;;15.70;99.90;;;18.68;61.26;98478.78;4870549;29;20049;-51
2022/10/19 04:06:56;;;;;;;26.30;14.95;;;15.80;99.90;;;18.70;61.28;98470.53;4869461;29;20057;-50
2022/10/19 04:09:23;;;;;;;25.75;14.80;;;15.80;99.90;;;18.68;61.34;98468.00;4870596;29;20059;-51
2022/10/19 04:11:51;;;;;;;27.20;13.48;;;15.80;99.90;;;18.73;61.24;98463.88;4870679;29;20355;-52
2022/10/19 04:14:21;;;;;;;29.50;17.05;;;15.80;99.90;;;18.75;61.13;98462.69;4870040;29;20291;-50
2022/10/19 04:17:01;;;;;;;29.42;15.98;;;15.80;99.90;;;18.75;61.07;98465.38;4870049;29;20077;-51
2022/10/19 04:19:30;;;;;;;31.77;15.48;;;15.70;99.90;;;18.74;61.04;98458.31;4870692;29;20053;-52
2022/10/19 04:21:58;;;;;;;28.40;15.50;;;15.80;99.90;;;18.68;61.26;98467.19;4869979;29;20053;-53
2022/10/19 04:24:27;;;;;;;26.80;15.95;;;15.80;99.90;;;18.66;61.25;98463.84;4869218;29;20045;-49
2022/10/19 04:26:55;;;;;;;29.95;15.27;;;15.80;99.90;;;18.59;61.27;98469.19;4869550;29;20055;-54
2022/10/19 04:29:25;;;;;;;27.63;14.38;;;15.70;99.90;;;18.54;61.36;98463.53;4870113;29;20049;-49
2022/10/19 04:31:58;;;;;;;25.60;13.43;;;15.60;99.90;;;18.50;61.68;98467.63;4870133;29;20055;-49
2022/10/19 04:34:26;;;;;;;28.33;13.98;;;15.60;99.90;;;18.46;61.61;98467.19;4870088;29;20057;-49
2022/10/19 04:36:58;;;;;;;28.02;13.63;;;15.50;99.90;;;18.46;61.78;98464.50;4869575;29;20051;-48
2022/10/19 04:39:26;;;;;;;28.60;14.68;;;15.50;99.90;;;18.48;61.70;98473.22;4870065;29;20056;-51
2022/10/19 04:41:54;;;;;;;23.13;13.25;;;15.60;99.90;;;18.52;61.84;98473.66;4869722;29;20052;-52
2022/10/19 04:44:22;;;;;;;24.48;13.57;;;15.70;99.90;;;18.53;61.76;98474.50;4869851;29;20045;-51
2022/10/19 04:46:55;;;;;;;28.05;15.73;;;15.70;99.90;;;18.53;61.68;98478.03;4869516;29;20045;-52
2022/10/19 04:49:22;;;;;;;30.95;15.15;;;15.70;99.90;;;18.52;61.74;98476.38;4883921;29;20060;-53
2022/10/19 04:51:50;;;;;;;29.00;15.20;;;15.70;99.90;;;18.57;61.66;98475.78;4870132;29;20059;-53
2022/10/19 04:54:18;;;;;;;31.65;15.18;;;15.70;99.90;;;18.56;61.49;98471.44;4870035;29;20135;-53
2022/10/19 04:56:46;;;;;;;32.05;16.77;;;15.60;99.90;;;18.55;61.59;98477.84;4869055;29;20057;-52
2022/10/19 04:59:14;;;;;;;31.45;15.18;;;15.60;99.90;;;18.56;61.37;98472.25;4870219;29;20263;-52
2022/10/19 05:01:42;;;;;;;32.70;15.90;;;15.60;99.90;;;18.56;61.33;98469.56;4869498;29;20374;-51
2022/10/19 05:04:14;;;;;;;34.58;15.07;;;15.50;99.90;;;18.55;61.43;98472.44;4869595;29;20049;-52
2022/10/19 05:06:41;;;;;;;26.08;14.75;;;15.50;99.90;;;18.55;61.37;98473.28;4869495;29;20056;-54
2022/10/19 05:09:09;;;;;;;29.65;16.95;;;15.50;99.90;;;18.56;61.50;98469.56;4869721;29;20056;-51
2022/10/19 05:11:37;;;;;;;30.45;16.17;;;15.50;99.90;;;18.58;61.35;98472.06;4869587;29;20065;-53
2022/10/19 05:14:05;;;;;;;28.95;14.50;;;15.50;99.90;;;18.60;61.29;98475.41;4869373;29;20056;-51
2022/10/19 05:16:33;;;;;;;28.70;14.52;;;15.60;99.90;;;18.59;61.23;98471.03;4869066;29;20072;-49
2022/10/19 05:19:01;;;;;;;29.42;14.13;;;15.60;99.90;;;18.59;61.35;98474.59;4870654;29;20061;-55
2022/10/19 05:21:29;;;;;;;26.42;13.63;;;15.60;99.90;;;18.60;61.39;98472.72;4873303;29;20050;-54
2022/10/19 05:23:57;;;;;;;31.00;15.02;;;15.60;99.90;;;18.59;61.41;98476.41;4873268;29;20247;-53
2022/10/19 05:26:27;;;;;;;29.48;15.52;;;15.60;99.90;;;18.60;61.39;98472.72;4872967;29;20231;-49
2022/10/19 05:29:03;;;;;;;27.58;14.98;;;15.50;99.90;;;18.58;61.41;98470.19;4873456;29;20049;-52
2022/10/19 05:31:33;;;;;;;26.27;14.45;;;15.50;99.90;;;18.58;61.42;98469.38;4873020;29;20075;-50
2022/10/19 05:34:02;;;;;;;24.58;13.27;;;15.50;99.90;;;18.59;61.33;98466.50;4872837;29;20049;-51
2022/10/19 05:36:33;;;;;;;19.52;12.48;;;15.50;99.90;;;18.56;61.35;98464.16;4871553;29;20053;-52
2022/10/19 05:39:12;;;;;;;18.63;11.60;;;15.50;99.90;;;18.55;61.51;98461.66;4873185;29;20053;-49
2022/10/19 05:41:44;;;;;;;20.95;12.48;;;15.40;99.90;;;18.52;61.52;98454.81;4873341;29;20053;-54
2022/10/19 05:44:19;;;;;;;26.48;13.45;;;15.40;99.90;;;18.50;61.63;98462.25;4872017;29;20060;-48
2022/10/19 05:46:50;;;;;;;33.17;12.75;;;15.40;99.90;;;18.47;61.60;98468.84;4872433;29;20050;-47
2022/10/19 05:49:20;;;;;;;16.98;11.30;;;15.40;99.90;;;18.47;61.81;98468.84;4873082;29;20049;-48
2022/10/19 05:51:49;;;;;;;22.05;12.27;;;15.40;99.90;;;18.46;61.65;98471.75;4873317;29;20087;-51
2022/10/19 05:54:18;;;;;;;20.48;11.23;;;15.40;99.90;;;18.44;61.88;98469.25;4872689;29;20053;-52
2022/10/19 05:56:50;;;;;;;22.95;12.68;;;15.40;99.90;;;18.42;61.67;98471.28;4872447;29;20361;-50
2022/10/19 05:59:20;;;;;;;23.13;11.85;;;15.30;99.90;;;18.41;61.86;98472.31;4872526;29;20049;-50
2022/10/19 06:01:48;;;;;;;20.88;11.10;;;15.40;99.90;;;18.41;62.02;98466.91;4872772;29;20343;-46
2022/10/19 06:04:16;;;;;;;20.85;12.27;;;15.40;99.90;;;18.41;61.94;98469.59;4872492;29;20045;-50
2022/10/19 06:06:49;;;;;;;22.27;11.55;;;15.30;99.90;;;18.46;61.73;98463.66;4872326;29;20049;-48
2022/10/19 06:09:17;;;;;;;18.88;11.93;;;15.40;99.90;;;18.45;61.95;98468.19;4872280;29;20225;-50
2022/10/19 06:11:44;;;;;;;17.98;12.23;;;15.40;99.90;;;18.44;62.02;98471.94;4873049;29;20243;-53
2022/10/19 06:14:15;;;;;;;20.98;12.32;;;15.40;99.90;;;18.47;62.07;98468.00;4872270;29;20240;-49
2022/10/19 06:16:44;;;;;;;21.13;12.80;;;15.40;99.90;;;18.48;61.88;98478.59;4871249;29;20270;-53
2022/10/19 06:19:13;;;;;;;19.45;11.80;;;15.40;99.90;;;18.46;61.82;98472.56;4872370;29;20061;-52
2022/10/19 06:21:43;;;;;;;18.05;11.88;;;15.40;99.90;;;18.47;61.94;98479.63;4872022;29;20046;-51
2022/10/19 06:24:12;;;;;;;18.83;11.93;;;15.40;99.90;;;18.48;61.81;98489.38;4872068;29;20056;-46
2022/10/19 06:26:40;;;;;;;18.15;11.95;;;15.40;99.90;;;18.48;61.72;98483.19;4871746;29;20064;-51
2022/10/19 06:29:08;;;;;;;20.45;13.13;;;15.40;99.90;;;18.51;61.57;98477.38;4872053;29;20275;-51
2022/10/19 06:31:37;;;;;;;18.63;11.82;;;15.40;99.90;;;18.52;61.70;98479.06;4871863;29;20056;-49
2022/10/19 06:34:05;;;;;;;20.38;12.48;;;15.50;99.90;;;18.53;61.53;98485.28;4872203;29;20050;-47
2022/10/19 06:36:34;;;;;;;22.00;13.18;;;15.50;99.90;;;18.53;61.53;98480.72;4871813;29;20058;-46
2022/10/19 06:39:03;;;;;;;18.48;13.18;;;15.50;99.90;;;18.51;61.56;98477.38;4886420;29;20063;-49
2022/10/19 06:41:31;;;;;;;17.15;12.77;;;15.50;99.90;;;18.53;61.50;98482.59;4871828;29;20369;-48
2022/10/19 06:44:16;;;;;;;16.83;11.98;;;15.50;99.90;;;18.55;61.51;98480.53;4872060;29;20041;-50
2022/10/19 06:46:44;;;;;;;21.00;11.77;;;15.60;99.90;;;18.48;61.58;98481.31;4871342;29;20051;-47
2022/10/19 06:49:13;;;;;;;19.65;11.48;;;15.50;99.90;;;18.52;61.60;98489.03;4871653;29;20059;-49
2022/10/19 06:51:42;;;;;;;19.67;12.02;;;15.60;99.90;;;18.53;61.50;98486.09;4868410;29;20061;-50
2022/10/19 06:54:09;;;;;;;15.10;10.77;;;15.50;99.90;;;18.59;61.33;98489.91;4871863;29;20053;-53
2022/10/19 06:56:37;;;;;;;20.60;11.80;;;15.50;99.90;;;18.58;61.40;98481.00;4871994;29;20377;-53
2022/10/19 06:59:05;;;;;;;16.52;10.98;;;15.60;99.90;;;18.59;61.35;98481.81;4871646;29;20056;-50
2022/10/19 07:01:33;;;;;;;17.63;11.77;;;15.50;99.90;;;18.63;61.44;98483.09;4871366;29;20107;-52
2022/10/19 07:04:01;;;;;;;16.75;11.27;;;15.60;99.90;;;18.69;61.21;98487.75;4870152;29;20049;-50
2022/10/19 07:06:29;;;;;;;19.45;11.40;;;15.60;99.90;;;18.71;61.17;98480.28;4900793;29;20046;-51
2022/10/19 07:08:57;;;;;;;14.18;10.27;;;15.70;99.90;;;18.77;61.19;98489.47;4871148;29;20049;-51
2022/10/19 07:11:25;;;;;;;13.88;11.07;;;15.80;99.90;;;18.80;61.10;98487.22;4871930;29;20054;-53
2022/10/19 07:13:53;;;;;;;16.17;10.52;;;15.80;99.90;;;18.84;60.99;98482.28;4871655;29;20060;-48
2022/10/19 07:16:21;;;;;;;13.43;9.57;;;15.80;99.90;;;18.84;60.94;98491.25;4871141;29;20056;-52
2022/10/19 07:18:52;;;;;;;15.15;10.52;;;15.80;99.90;;;18.89;60.87;98498.75;4870992;29;20045;-51
2022/10/19 07:21:22;;;;;;;16.15;11.68;;;15.90;99.90;;;18.94;60.65;98495.44;4870979;29;20056;-47
2022/10/19 07:23:50;;;;;;;17.50;10.93;;;15.90;99.90;;;18.99;60.59;98493.00;4871045;29;20049;-53
2022/10/19 07:26:25;;;;;;;15.20;10.73;;;16.00;99.90;;;19.05;60.56;98500.31;4871154;29;20049;-52
2022/10/19 07:28:56;;;;;;;21.83;10.43;;;16.00;99.90;;;19.06;60.36;98493.91;4870990;29;20247;-51
2022/10/19 07:31:26;;;;;;;16.27;11.80;;;16.00;99.90;;;19.07;60.35;98492.88;4871151;29;20049;-52
2022/10/19 07:33:58;;;;;;;16.60;10.15;;;16.10;99.90;;;19.11;60.47;98490.63;4871404;29;20061;-52
2022/10/19 07:36:27;;;;;;;15.63;10.85;;;16.10;99.90;;;19.15;60.42;98491.91;4870243;29;20053;-49
2022/10/19 07:38:57;;;;;;;18.02;10.82;;;16.10;99.90;;;19.21;60.25;98496.50;4870473;29;20053;-51
2022/10/19 07:41:25;;;;;;;20.00;12.13;;;16.20;99.90;;;19.21;60.27;98497.38;4870310;29;20057;-50
2022/10/19 07:43:54;;;;;;;17.23;11.25;;;16.20;99.90;;;19.24;60.32;98490.72;4870659;29;20053;-50
2022/10/19 07:46:26;;;;;;;16.90;11.25;;;16.20;99.90;;;19.27;60.25;98491.16;4870776;29;20224;-52
2022/10/19 07:48:54;;;;;;;16.38;11.63;;;16.30;99.90;;;19.32;60.03;98497.84;4870472;29;20083;-49
2022/10/19 07:51:22;;;;;;;16.85;11.52;;;16.30;99.90;;;19.32;60.09;98495.97;4870659;29;20115;-49
2022/10/19 07:53:50;;;;;;;13.60;10.63;;;16.30;99.90;;;19.35;59.99;98501.00;4871012;29;20071;-50
2022/10/19 07:56:24;;;;;;;12.98;10.07;;;16.30;99.90;;;19.38;60.04;98494.34;4870396;29;20053;-52
2022/10/19 07:58:56;;;;;;;15.40;11.07;;;16.40;99.90;;;19.42;59.76;98492.91;4870763;29;20049;-50
2022/10/19 08:01:28;;;;;;;14.30;9.25;;;16.40;99.90;;;19.43;59.66;98495.44;4869441;29;20055;-54
2022/10/19 08:03:58;;;;;;;14.77;9.93;;;16.40;99.90;;;19.47;59.55;98496.69;4869477;29;20072;-52
2022/10/19 08:06:46;;;;;;;13.00;10.52;;;16.40;99.90;;;19.51;59.60;98491.75;4869854;29;20075;-50
2022/10/19 08:09:14;;;;;;;14.05;10.07;;;16.50;99.90;;;19.52;59.41;98496.09;4870205;29;20045;-49
2022/10/19 08:12:03;;;;;;;13.98;9.75;;;16.40;99.90;;;19.56;59.47;98494.69;4870477;29;20045;-51
2022/10/19 08:14:32;;;;;;;13.75;9.50;;;16.50;99.90;;;19.56;59.27;98496.53;4870197;29;20053;-57
2022/10/19 08:17:00;;;;;;;12.93;9.55;;;16.50;99.90;;;19.54;59.15;98499.47;4870188;29;20255;-53
2022/10/19 08:19:28;;;;;;;12.05;8.38;;;16.50;99.90;;;19.54;59.16;98493.22;4869605;29;20059;-55
2022/10/19 08:21:56;;;;;;;10.65;8.02;;;16.50;99.90;;;19.51;59.33;98490.91;4870861;29;20136;-57
2022/10/19 08:24:24;;;;;;;11.20;8.90;;;16.50;99.90;;;19.46;59.33;98488.78;4870257;29;20365;-57
2022/10/19 08:26:52;;;;;;;9.07;7.25;;;16.50;99.90;;;19.40;59.48;98495.00;4869624;29;20050;-54
2022/10/19 08:29:20;;;;;;;12.23;8.65;;;16.50;99.90;;;19.37;59.57;98485.44;4869808;29;20058;-55
2022/10/19 08:31:49;;;;;;;13.13;8.48;;;16.60;99.90;;;19.40;59.40;98484.19;4869255;29;20051;-47
2022/10/19 08:34:16;;;;;;;12.35;9.10;;;16.50;99.90;;;19.42;59.33;98487.53;4870348;29;20063;-47
2022/10/19 08:36:46;;;;;;;11.70;9.07;;;16.50;99.90;;;19.44;59.21;98496.25;4869309;29;20049;-49
2022/10/19 08:39:15;;;;;;;11.93;8.98;;;16.40;99.90;;;19.45;59.05;98500.63;4869061;29;20056;-46
2022/10/19 08:42:18;;;;;;;12.60;9.35;;;16.40;99.90;;;19.45;59.20;98501.47;4869841;29;20055;-47
2022/10/19 08:45:13;;;;;;;13.73;10.13;;;16.40;99.90;;;19.50;59.07;98498.16;4869073;29;20060;-47
2022/10/19 08:48:04;;;;;;;11.25;9.23;;;16.40;99.90;;;19.51;58.87;98504.41;4869265;29;20375;-49
2022/10/19 08:50:44;;;;;;;12.80;9.52;;;16.40;99.90;;;19.52;58.94;98495.28;4870764;29;20068;-49
2022/10/19 08:53:44;;;;;;;15.10;10.15;;;16.40;99.90;;;19.49;59.01;98493.81;4886598;29;20148;-50
2022/10/19 08:56:45;;;;;;;14.35;9.80;;;16.40;99.90;;;19.50;58.85;98498.16;4904387;29;20049;-48
2022/10/19 08:59:45;;;;;;;13.60;10.23;;;16.40;99.90;;;19.48;58.53;98508.31;4904721;29;20059;-48
2022/10/19 09:02:56;;;;;;;12.60;9.45;;;16.30;99.90;;;19.43;58.63;98497.31;4904481;29;20063;-45
2022/10/19 09:05:44;;;;;;;13.20;9.38;;;16.20;99.90;;;19.44;58.73;98493.56;4905413;29;20083;-53
2022/10/19 09:08:14;;;;;;;14.65;10.63;;;16.20;99.90;;;19.43;58.73;98491.91;4905548;29;20056;-48
2022/10/19 09:10:49;;;;;;;16.20;9.85;;;16.30;99.90;;;19.44;58.73;98491.72;4906141;29;20257;-48
2022/10/19 09:13:41;;;;;;;14.35;10.20;;;16.30;99.90;;;19.46;59.04;98483.41;4905598;29;20055;-48
2022/10/19 09:16:29;;;;;;;12.88;9.57;;;16.30;99.90;;;19.51;58.64;98480.94;4906431;29;20060;-50
2022/10/19 09:18:57;;;;;;;13.70;10.20;;;16.40;99.90;;;19.53;58.64;98483.44;4906646;29;20044;-47
2022/10/19 09:21:55;;;;;;;14.93;10.73;;;16.40;99.90;;;19.57;58.81;98480.16;4905042;29;20342;-48
2022/10/19 09:24:45;;;;;;;15.75;10.27;;;16.50;99.90;;;19.60;58.70;98474.34;4904416;29;20056;-48
2022/10/19 09:27:21;;;;;;;15.20;9.60;;;16.50;99.90;;;19.61;58.58;98473.31;4904369;29;20282;-52
2022/10/19 09:30:01;;;;;;;12.70;9.30;;;16.60;99.90;;;19.67;58.84;98471.69;4904266;29;20055;-50
2022/10/19 09:32:36;;;;;;;12.38;8.50;;;16.60;99.90;;;19.71;58.55;98472.13;4906408;29;20053;-47
2022/10/19 09:35:26;;;;;;;13.02;8.82;;;16.60;99.90;;;19.77;58.71;98474.88;4906703;29;20054;-49
2022/10/19 09:37:55;;;;;;;12.00;9.20;;;16.80;99.90;;;19.81;58.61;98469.91;4906293;29;20048;-48
2022/10/19 09:40:28;;;;;;;13.93;8.75;;;16.90;99.90;;;19.85;58.51;98466.63;4905427;29;20075;-46
2022/10/19 09:42:57;;;;;;;11.13;8.52;;;16.80;99.90;;;19.88;58.37;98469.97;4906768;29;20059;-51
2022/10/19 09:45:56;;;;;;;12.57;9.75;;;16.90;99.90;;;19.93;58.54;98476.44;4905549;29;20367;-47
2022/10/19 09:48:23;;;;;;;14.63;9.45;;;17.00;99.90;;;19.98;58.16;98465.00;4891192;29;20050;-51
2022/10/19 09:51:00;;;;;;;14.40;9.68;;;17.00;99.90;;;20.00;58.48;98469.16;4906692;29;20071;-46
2022/10/19 09:53:29;;;;;;;13.68;9.55;;;17.00;99.90;;;20.02;58.02;98471.66;4880884;29;20358;-49
2022/10/19 09:56:07;;;;;;;14.52;9.88;;;17.10;99.90;;;20.05;58.06;98468.56;4881102;29;20053;-47
2022/10/19 09:58:45;;;;;;;11.68;8.18;;;17.00;99.90;;;20.11;58.09;98466.94;4884177;29;20250;-48
2022/10/19 10:01:38;;;;;;;12.48;8.65;;;17.10;99.90;;;20.16;58.05;98467.13;4883420;29;20056;-50
2022/10/19 10:04:16;;;;;;;11.25;7.95;;;17.20;99.90;;;20.19;57.79;98472.97;4883833;29;20067;-49
2022/10/19 10:06:47;;;;;;;10.60;8.15;;;17.20;99.90;;;20.18;57.77;98470.47;4884579;29;20059;-47
2022/10/19 10:09:27;;;;;;;10.27;8.48;;;17.20;99.90;;;20.22;57.46;98467.19;4886999;29;20044;-47
2022/10/19 10:11:58;;;;;;;11.68;8.07;;;17.20;99.90;;;20.24;57.65;98465.09;4887026;29;20059;-52
2022/10/19 10:14:32;;;;;;;10.02;7.45;;;17.20;99.90;;;20.25;57.17;98461.34;4887881;29;20250;-49
2022/10/19 10:17:06;;;;;;;12.88;8.70;;;17.20;99.90;;;20.26;57.26;98471.13;4886419;29;20071;-51
2022/10/19 10:20:16;;;;;;;10.15;7.57;;;17.20;99.90;;;20.24;57.54;98464.28;4887150;29;20049;-48
2022/10/19 10:23:05;;;;;;;10.27;7.25;;;17.20;99.90;;;20.30;56.81;98465.31;4887472;29;20052;-49
2022/10/19 10:25:55;;;;;;;8.02;6.32;;;17.20;99.90;;;20.22;56.93;98461.78;4886497;29;20057;-46
2022/10/19 10:28:29;;;;;;;7.80;6.28;;;17.20;99.90;;;20.18;56.68;98456.97;4885911;29;20247;-47
2022/10/19 10:31:12;;;;;;;12.98;6.63;;;17.20;99.90;;;20.19;56.58;98458.63;4887842;29;20045;-50
2022/10/19 10:34:00;;;;;;;7.82;6.03;;;17.20;99.90;;;20.21;56.57;98456.56;4885128;29;20065;-49